Celebrity Century — 9HJI9 — position and weather

sailwx.info

Track history (hours):
 
Tides and Currents Weather Stations Pressure Air Temp Water Temp Dewpoint Dewpoint Depression Visibility Wind Speed Wind Dir Waves Ship Positions

Celebrity Century

Last reported at 2015-Jul-04 13:23 UTC. Time now 2015-Jul-05 15:05 UTC.
Position N 33°36' E 129°37'.

; draft 8.1 m.

Type: Ship. MMSI: 249054000.

Date/timePositionNaut miles runAvg speedWind from/ knotsBaromVisibWave heightAir tempDewpointWater temp
2015-Jul-04 13:23N 33°36' E 129°37'1113.5
2015-Jul-04 12:33N 33°41' E 129°49'1515.4
2015-Jul-04 11:33N 33°44' E 130°07'1312.5
2015-Jul-04 10:33N 33°38' E 130°21'3 3.0
2015-Jul-04 09:32N 33°37' E 130°24'7 0.6
2015-Jul-03 21:32N 33°39' E 130°16'6 6.3
2015-Jul-03 20:32N 33°44' E 130°11'10 9.9
2015-Jul-03 19:33N 33°40' E 130°01'1110.5
2015-Jul-03 18:33N 33°40' E 129°48'31613.0
2015-Jul-02 18:10N 31°38' E 124°02'914.6
2015-Jul-02 17:33N 31°35' E 123°51'1414.2
2015-Jul-02 16:33N 31°27' E 123°38'1813.1
2015-Jul-02 15:11N 31°24' E 123°17'914.1
2015-Jul-02 14:32N 31°18' E 123°09'1414.1
2015-Jul-02 13:33N 31°11' E 122°55'1413.5
2015-Jul-02 12:29N 31°07' E 122°39'1112.0
2015-Jul-02 11:33N 31°05' E 122°26'1111.3
2015-Jul-02 10:33N 31°09' E 122°13'1514.8
2015-Jul-02 09:34N 31°15' E 121°57'1414.3
2015-Jul-02 08:33N 31°20' E 121°42'1110.7
2015-Jul-02 07:33N 31°25' E 121°30'0 0.0
2015-Jul-02 06:33N 31°25' E 121°30'0 0.0
2015-Jul-02 05:29N 31°25' E 121°30'0 0.0
2015-Jul-02 04:33N 31°25' E 121°30'0 0.0
2015-Jul-02 03:33N 31°25' E 121°30'0 0.0
2015-Jul-02 02:33N 31°25' E 121°30'0 0.0
2015-Jul-02 01:33N 31°25' E 121°30'0 0.0
2015-Jul-02 00:33N 31°25' E 121°30'0 0.0
2015-Jul-01 23:34N 31°25' E 121°30'0 0.0
2015-Jul-01 22:33N 31°25' E 121°30'2 2.2
2015-Jul-01 21:33N 31°24' E 121°33'1110.8
2015-Jul-01 20:34N 31°19' E 121°44'1110.5
2015-Jul-01 19:33N 31°16' E 121°55'1313.1
2015-Jul-01 18:34N 31°11' E 122°10'1413.7
2015-Jul-01 17:33N 31°06' E 122°25'1211.7
2015-Jul-01 16:33N 31°07' E 122°38'1312.6
2015-Jul-01 15:33N 31°08' E 122°53'1413.8
2015-Jul-01 14:33N 31°16' E 123°06'1313.1
2015-Jul-01 13:33N 31°22' E 123°20'1413.9
2015-Jul-01 12:30N 31°28' E 123°36'1314.2
2015-Jul-01 11:33N 31°33' E 123°50'1414.2
2015-Jul-01 10:34N 31°39' E 124°05'1514.3
2015-Jul-01 09:32N 31°45' E 124°21'3214.1
2015-Jul-01 07:14N 31°58' E 124°57'26414.0
2015-Jun-30 12:18N 33°39' E 129°47'1114.4
2015-Jun-30 11:33N 33°43' E 129°59'1313.2
2015-Jun-30 10:33N 33°42' E 130°15'9 0.9
2015-Jun-30 00:26N 33°37' E 130°24'0 0.0
2015-Jun-29 23:32N 33°37' E 130°24'0 0.1
2015-Jun-29 22:33N 33°37' E 130°24'9 8.6
2015-Jun-29 21:33N 33°41' E 130°15'9 8.8
2015-Jun-29 20:33N 33°43' E 130°05'9 9.6
2015-Jun-29 19:33N 33°40' E 129°54'1111.0
2015-Jun-29 18:33N 33°38' E 129°41'41912.7
2015-Jun-28 09:32N 31°16' E 121°53'1313.2
2015-Jun-28 08:33N 31°21' E 121°39'9 8.5
2015-Jun-28 07:33N 31°25' E 121°30'0 0.0
2015-Jun-28 06:33N 31°25' E 121°30'0 0.0
2015-Jun-28 05:33N 31°25' E 121°30'0 0.0
2015-Jun-28 04:33N 31°25' E 121°30'0 0.0
2015-Jun-28 03:33N 31°25' E 121°30'0 0.0
2015-Jun-28 02:33N 31°25' E 121°30'0 0.0
2015-Jun-28 01:33N 31°25' E 121°30'0 0.0
2015-Jun-28 00:33N 31°25' E 121°30'0 0.0
2015-Jun-27 23:28N 31°25' E 121°30'0 0.0
2015-Jun-27 22:33N 31°25' E 121°30'3 3.5
2015-Jun-27 21:33N 31°24' E 121°34'1110.8
2015-Jun-27 20:33N 31°18' E 121°45'1312.1
2015-Jun-27 19:31N 31°15' E 121°60'  
2015-Jun-25 01:33N 31°15' E 123°02'1919.2
2015-Jun-25 00:33N 31°06' E 122°42'1818.4
2015-Jun-24 23:33N 31°06' E 122°20'1515.0
2015-Jun-24 22:34N 31°14' E 122°05'1514.9
2015-Jun-24 21:33N 31°17' E 121°48'1111.0
2015-Jun-24 20:34N 31°22' E 121°37'6 6.0
2015-Jun-24 19:33N 31°25' E 121°30'0 0.0
2015-Jun-24 18:34N 31°25' E 121°30'0 0.0
2015-Jun-24 17:32N 31°25' E 121°30'0 0.0
2015-Jun-24 16:34N 31°25' E 121°30'0 0.0
2015-Jun-24 15:33N 31°25' E 121°30'0 0.0
2015-Jun-24 14:33N 31°25' E 121°30'0 0.0
2015-Jun-24 13:32N 31°25' E 121°30'  
Track history (hours):
 
Tides and Currents Weather Stations Pressure Air Temp Water Temp Dewpoint Dewpoint Depression Visibility Wind Speed Wind Dir Waves Ship Positions

Celebrity Century

Last reported at 2015-Jul-04 13:23 UTC. Time now 2015-Jul-05 15:05 UTC.
Position N 33°36' E 129°37'.

; draft 8.1 m.

Type: Ship. MMSI: 249054000.

Date/timePositionNaut miles runAvg speedWind from/ knotsBaromVisibWave heightAir tempDewpointWater temp
2015-Jul-04 13:23N 33°36' E 129°37'1113.5
2015-Jul-04 12:33N 33°41' E 129°49'1515.4
2015-Jul-04 11:33N 33°44' E 130°07'1312.5
2015-Jul-04 10:33N 33°38' E 130°21'3 3.0
2015-Jul-04 09:32N 33°37' E 130°24'7 0.6
2015-Jul-03 21:32N 33°39' E 130°16'6 6.3
2015-Jul-03 20:32N 33°44' E 130°11'10 9.9
2015-Jul-03 19:33N 33°40' E 130°01'1110.5
2015-Jul-03 18:33N 33°40' E 129°48'31613.0
2015-Jul-02 18:10N 31°38' E 124°02'914.6
2015-Jul-02 17:33N 31°35' E 123°51'1414.2
2015-Jul-02 16:33N 31°27' E 123°38'1813.1
2015-Jul-02 15:11N 31°24' E 123°17'914.1
2015-Jul-02 14:32N 31°18' E 123°09'1414.1
2015-Jul-02 13:33N 31°11' E 122°55'1413.5
2015-Jul-02 12:29N 31°07' E 122°39'1112.0
2015-Jul-02 11:33N 31°05' E 122°26'1111.3
2015-Jul-02 10:33N 31°09' E 122°13'1514.8
2015-Jul-02 09:34N 31°15' E 121°57'1414.3
2015-Jul-02 08:33N 31°20' E 121°42'1110.7
2015-Jul-02 07:33N 31°25' E 121°30'0 0.0
2015-Jul-02 06:33N 31°25' E 121°30'0 0.0
2015-Jul-02 05:29N 31°25' E 121°30'0 0.0
2015-Jul-02 04:33N 31°25' E 121°30'0 0.0
2015-Jul-02 03:33N 31°25' E 121°30'0 0.0
2015-Jul-02 02:33N 31°25' E 121°30'0 0.0
2015-Jul-02 01:33N 31°25' E 121°30'0 0.0
2015-Jul-02 00:33N 31°25' E 121°30'0 0.0
2015-Jul-01 23:34N 31°25' E 121°30'0 0.0
2015-Jul-01 22:33N 31°25' E 121°30'2 2.2
2015-Jul-01 21:33N 31°24' E 121°33'1110.8
2015-Jul-01 20:34N 31°19' E 121°44'1110.5
2015-Jul-01 19:33N 31°16' E 121°55'1313.1
2015-Jul-01 18:34N 31°11' E 122°10'1413.7
2015-Jul-01 17:33N 31°06' E 122°25'1211.7
2015-Jul-01 16:33N 31°07' E 122°38'1312.6
2015-Jul-01 15:33N 31°08' E 122°53'1413.8
2015-Jul-01 14:33N 31°16' E 123°06'1313.1
2015-Jul-01 13:33N 31°22' E 123°20'1413.9
2015-Jul-01 12:30N 31°28' E 123°36'1314.2
2015-Jul-01 11:33N 31°33' E 123°50'1414.2
2015-Jul-01 10:34N 31°39' E 124°05'1514.3
2015-Jul-01 09:32N 31°45' E 124°21'3214.1
2015-Jul-01 07:14N 31°58' E 124°57'26414.0
2015-Jun-30 12:18N 33°39' E 129°47'1114.4
2015-Jun-30 11:33N 33°43' E 129°59'1313.2
2015-Jun-30 10:33N 33°42' E 130°15'9 0.9
2015-Jun-30 00:26N 33°37' E 130°24'0 0.0
2015-Jun-29 23:32N 33°37' E 130°24'0 0.1
2015-Jun-29 22:33N 33°37' E 130°24'9 8.6
2015-Jun-29 21:33N 33°41' E 130°15'9 8.8
2015-Jun-29 20:33N 33°43' E 130°05'9 9.6
2015-Jun-29 19:33N 33°40' E 129°54'1111.0
2015-Jun-29 18:33N 33°38' E 129°41'41912.7
2015-Jun-28 09:32N 31°16' E 121°53'1313.2
2015-Jun-28 08:33N 31°21' E 121°39'9 8.5
2015-Jun-28 07:33N 31°25' E 121°30'0 0.0
2015-Jun-28 06:33N 31°25' E 121°30'0 0.0
2015-Jun-28 05:33N 31°25' E 121°30'0 0.0
2015-Jun-28 04:33N 31°25' E 121°30'0 0.0
2015-Jun-28 03:33N 31°25' E 121°30'0 0.0
2015-Jun-28 02:33N 31°25' E 121°30'0 0.0
2015-Jun-28 01:33N 31°25' E 121°30'0 0.0
2015-Jun-28 00:33N 31°25' E 121°30'0 0.0
2015-Jun-27 23:28N 31°25' E 121°30'0 0.0
2015-Jun-27 22:33N 31°25' E 121°30'3 3.5
2015-Jun-27 21:33N 31°24' E 121°34'1110.8
2015-Jun-27 20:33N 31°18' E 121°45'1312.1
2015-Jun-27 19:31N 31°15' E 121°60'  
2015-Jun-25 01:33N 31°15' E 123°02'1919.2
2015-Jun-25 00:33N 31°06' E 122°42'1818.4
2015-Jun-24 23:33N 31°06' E 122°20'1515.0
2015-Jun-24 22:34N 31°14' E 122°05'1514.9
2015-Jun-24 21:33N 31°17' E 121°48'1111.0
2015-Jun-24 20:34N 31°22' E 121°37'6 6.0
2015-Jun-24 19:33N 31°25' E 121°30'0 0.0
2015-Jun-24 18:34N 31°25' E 121°30'0 0.0
2015-Jun-24 17:32N 31°25' E 121°30'0 0.0
2015-Jun-24 16:34N 31°25' E 121°30'0 0.0
2015-Jun-24 15:33N 31°25' E 121°30'0 0.0
2015-Jun-24 14:33N 31°25' E 121°30'0 0.0
2015-Jun-24 13:32N 31°25' E 121°30'  

Dump ship's entire track history